Time;durP1;ratioP1;P1;durP2;ratioP2;P2;SDS_P1;SDS_P2;PMS_P1;PMS_P2;Temp;Humidity;BMP_temperature;BMP_pressure;BME280_temperature;BME280_humidity;BME280_pressure;Samples;Min_cycle;Max_cycle;Signal;HPM_P1;HPM_P2
2021/03/25 00:01:54;;;;;;;31.80;16.58;;;7.10;82.60;;;;;;5050233;28;20736;-78
2021/03/25 00:04:21;;;;;;;30.33;16.80;;;7.10;81.90;;;;;;5049811;28;20099;-78
2021/03/25 00:06:51;;;;;;;36.03;17.08;;;7.00;82.90;;;;;;5060718;28;20043;-78
2021/03/25 00:09:21;;;;;;;31.17;16.50;;;7.10;82.40;;;;;;5047251;28;20048;-78
2021/03/25 00:11:47;;;;;;;34.50;16.80;;;7.10;82.40;;;;;;5064452;28;20048;-78
2021/03/25 00:14:13;;;;;;;34.15;18.25;;;7.00;82.40;;;;;;5040273;28;20102;-78
2021/03/25 00:16:39;;;;;;;33.00;17.70;;;7.00;82.60;;;;;;5034354;28;20033;-77
2021/03/25 00:19:07;;;;;;;36.85;20.20;;;7.20;83.20;;;;;;5051409;28;20048;-78
2021/03/25 00:21:33;;;;;;;32.30;18.63;;;7.00;82.50;;;;;;5051861;28;20044;-77
2021/03/25 00:24:00;;;;;;;28.98;17.55;;;7.10;82.80;;;;;;5034033;28;20319;-78
2021/03/25 00:26:27;;;;;;;32.42;18.33;;;7.00;83.00;;;;;;5033813;28;20041;-77
2021/03/25 00:28:53;;;;;;;40.40;19.83;;;7.00;82.80;;;;;;5050640;28;20041;-78
2021/03/25 00:31:19;;;;;;;37.53;19.35;;;7.00;82.90;;;;;;5065851;28;20406;-78
2021/03/25 00:33:45;;;;;;;44.53;22.08;;;7.00;83.00;;;;;;5060369;28;20065;-78
2021/03/25 00:36:11;;;;;;;34.05;18.90;;;6.90;83.40;;;;;;5053495;28;20459;-78
2021/03/25 00:38:37;;;;;;;38.17;20.92;;;6.90;83.60;;;;;;5071723;28;20047;-78
2021/03/25 00:41:03;;;;;;;37.95;18.65;;;6.90;83.10;;;;;;5071448;28;20044;-78
2021/03/25 00:43:29;;;;;;;34.13;17.85;;;6.90;83.30;;;;;;5045256;28;20036;-78
2021/03/25 00:45:55;;;;;;;34.17;18.15;;;6.80;83.50;;;;;;5033251;28;20044;-78
2021/03/25 00:48:24;;;;;;;40.05;19.55;;;6.90;83.00;;;;;;5033315;28;20043;-78
2021/03/25 00:51:00;;;;;;;33.72;18.15;;;6.90;83.10;;;;;;5055008;28;20036;-78
2021/03/25 00:53:33;;;;;;;34.42;19.23;;;6.80;83.30;;;;;;5038301;28;20182;-77
2021/03/25 00:55:59;;;;;;;35.67;17.88;;;6.70;83.30;;;;;;5033167;28;20044;-78
2021/03/25 00:58:27;;;;;;;39.78;17.85;;;6.70;83.50;;;;;;5049657;28;20124;-78
2021/03/25 01:00:53;;;;;;;35.00;17.35;;;6.70;83.40;;;;;;5065943;28;20181;-78
2021/03/25 01:03:23;;;;;;;37.30;18.70;;;6.60;83.10;;;;;;5060837;28;20049;-78
2021/03/25 01:05:49;;;;;;;35.20;17.40;;;6.60;83.90;;;;;;5053292;28;20039;-78
2021/03/25 01:08:16;;;;;;;31.25;17.08;;;6.60;83.90;;;;;;5070349;28;20044;-78
2021/03/25 01:10:51;;;;;;;33.53;18.88;;;6.50;83.60;;;;;;5061985;28;20041;-78
2021/03/25 01:13:21;;;;;;;29.98;16.45;;;6.50;82.90;;;;;;5053928;28;20041;-78
2021/03/25 01:15:48;;;;;;;29.67;17.88;;;6.40;82.90;;;;;;5071266;28;20041;-78
2021/03/25 01:18:13;;;;;;;32.33;17.77;;;6.40;83.30;;;;;;5070532;28;20040;-79
2021/03/25 01:20:42;;;;;;;29.30;15.90;;;6.40;83.10;;;;;;5053230;28;20053;-78
2021/03/25 01:23:09;;;;;;;38.65;18.30;;;6.30;83.60;;;;;;5069913;28;20055;-78
2021/03/25 01:25:36;;;;;;;29.13;18.70;;;6.30;82.80;;;;;;5070310;28;20047;-78
2021/03/25 01:28:04;;;;;;;32.78;16.83;;;6.20;82.80;;;;;;5059893;28;20108;-78
2021/03/25 01:30:31;;;;;;;32.92;18.17;;;6.20;82.50;;;;;;5027750;28;20067;-78
2021/03/25 01:32:58;;;;;;;38.85;20.02;;;6.20;82.30;;;;;;5048849;28;20048;-78
2021/03/25 01:35:25;;;;;;;34.55;17.38;;;6.10;82.50;;;;;;5060864;28;20044;-78
2021/03/25 01:37:51;;;;;;;30.50;16.95;;;6.10;83.00;;;;;;5052687;28;20048;-78
2021/03/25 01:40:20;;;;;;;33.75;18.33;;;6.00;83.10;;;;;;5069757;28;20052;-77
2021/03/25 01:42:46;;;;;;;39.25;19.63;;;6.00;83.60;;;;;;5060207;28;20041;-77
2021/03/25 01:45:30;;;;;;;31.38;17.27;;;5.90;83.50;;;;;;5031984;28;20045;-77
2021/03/25 01:47:57;;;;;;;;;;;5.90;83.60;;;;;;5062530;28;20072;-77
2021/03/25 01:50:23;;;;;;;40.72;18.98;;;5.90;88.20;;;;;;5049381;28;20059;-77
2021/03/25 01:53:16;;;;;;;41.78;21.25;;;5.90;85.20;;;;;;5032613;28;20048;-77
2021/03/25 01:55:47;;;;;;;36.10;20.25;;;5.90;83.60;;;;;;5050719;28;20123;-78
2021/03/25 01:58:30;;;;;;;39.17;18.42;;;5.90;84.30;;;;;;5052102;28;20040;-77
2021/03/25 02:01:18;;;;;;;35.03;17.75;;;5.80;83.90;;;;;;5070098;28;20059;-78
2021/03/25 02:03:54;;;;;;;34.13;18.58;;;5.90;85.90;;;;;;5070614;28;20134;-78
2021/03/25 02:06:29;;;;;;;34.20;19.30;;;5.80;84.90;;;;;;5069492;28;20473;-78
2021/03/25 02:09:16;;;;;;;43.85;21.50;;;5.80;85.10;;;;;;5069579;28;20040;-77
2021/03/25 02:12:14;;;;;;;33.47;18.15;;;5.80;84.40;;;;;;5030426;28;20076;-77
2021/03/25 02:15:05;;;;;;;41.95;20.77;;;5.80;83.80;;;;;;5017782;28;20442;-78
2021/03/25 02:17:47;;;;;;;33.95;18.20;;;5.70;83.50;;;;;;5050064;28;20036;-78
2021/03/25 02:20:39;;;;;;;33.88;18.80;;;5.70;84.00;;;;;;5032044;28;20052;-78
2021/03/25 02:23:21;;;;;;;37.63;19.65;;;5.60;84.40;;;;;;5032025;28;20051;-78
2021/03/25 02:25:54;;;;;;;37.72;18.67;;;5.60;83.40;;;;;;5050171;28;20139;-78
2021/03/25 02:29:01;;;;;;;39.80;20.13;;;5.50;84.20;;;;;;5066162;28;20143;-78
2021/03/25 02:31:35;;;;;;;39.75;19.90;;;5.50;85.00;;;;;;5067445;28;20040;-78
2021/03/25 02:34:07;;;;;;;34.83;19.52;;;5.40;84.50;;;;;;5050762;28;20099;-78
2021/03/25 02:37:01;;;;;;;31.73;17.58;;;5.40;84.50;;;;;;5060629;28;20040;-77
2021/03/25 02:39:34;;;;;;;39.38;18.85;;;5.30;85.00;;;;;;5060563;28;20040;-78
2021/03/25 02:42:03;;;;;;;41.90;19.80;;;5.30;84.20;;;;;;5069230;28;20118;-78
2021/03/25 02:44:35;;;;;;;33.92;18.80;;;5.20;83.50;;;;;;5049183;28;20132;-78
2021/03/25 02:47:08;;;;;;;38.90;19.15;;;5.20;83.00;;;;;;5064148;28;20545;-78
2021/03/25 02:49:49;;;;;;;44.60;21.45;;;5.00;83.10;;;;;;5031428;28;20121;-78
2021/03/25 02:52:30;;;;;;;36.53;18.90;;;5.10;84.60;;;;;;5037841;28;20479;-78
2021/03/25 02:54:58;;;;;;;40.95;20.90;;;5.10;85.90;;;;;;5048871;28;20048;-78
2021/03/25 02:57:51;;;;;;;38.63;22.02;;;5.00;85.50;;;;;;5049767;28;20048;-78
2021/03/25 03:00:25;;;;;;;42.85;20.10;;;5.00;84.80;;;;;;5068216;28;20048;-78
2021/03/25 03:03:04;;;;;;;41.53;21.98;;;5.00;85.20;;;;;;5045928;28;20526;-77
2021/03/25 03:05:33;;;;;;;41.50;22.00;;;4.90;84.90;;;;;;5049155;28;20601;-78
2021/03/25 03:08:17;;;;;;;42.22;23.25;;;4.90;85.60;;;;;;5047745;28;20449;-78
2021/03/25 03:10:59;;;;;;;48.00;21.95;;;4.80;85.60;;;;;;5048430;28;20072;-78
2021/03/25 03:13:29;;;;;;;39.85;20.83;;;4.80;86.00;;;;;;5040753;28;20068;-77
2021/03/25 03:16:01;;;;;;;50.10;23.55;;;4.70;85.60;;;;;;5028375;28;20153;-78
2021/03/25 03:18:39;;;;;;;49.30;22.90;;;4.70;85.30;;;;;;5029133;28;20073;-78
2021/03/25 03:21:10;;;;;;;49.20;24.33;;;4.70;86.20;;;;;;5033904;28;20056;-79
2021/03/25 03:23:37;;;;;;;47.08;24.15;;;4.60;85.50;;;;;;5047855;28;20052;-78
2021/03/25 03:26:16;;;;;;;42.08;20.75;;;4.60;85.20;;;;;;5063168;28;20075;-78
2021/03/25 03:28:47;;;;;;;44.50;21.48;;;4.60;84.80;;;;;;5048849;28;20029;-78
2021/03/25 03:31:20;;;;;;;48.75;25.33;;;4.50;85.70;;;;;;5033401;28;20442;-78
2021/03/25 03:33:50;;;;;;;49.63;24.17;;;4.50;85.20;;;;;;5034289;28;20746;-78
2021/03/25 03:36:21;;;;;;;52.72;26.98;;;4.50;85.90;;;;;;5031372;28;20144;-79
2021/03/25 03:38:59;;;;;;;49.53;25.00;;;4.50;85.70;;;;;;5044258;28;20462;-78
2021/03/25 03:41:32;;;;;;;46.90;24.48;;;4.40;85.40;;;;;;5033111;28;20049;-78
2021/03/25 03:44:02;;;;;;;42.30;21.87;;;4.40;84.50;;;;;;5045760;28;20075;-78
2021/03/25 03:46:29;;;;;;;46.92;24.15;;;4.30;85.30;;;;;;5047437;28;20044;-78
2021/03/25 03:48:58;;;;;;;48.90;25.35;;;4.30;85.00;;;;;;5051329;28;20049;-77
2021/03/25 03:51:33;;;;;;;56.00;27.88;;;4.30;85.10;;;;;;5043932;28;20081;-78
2021/03/25 03:54:01;;;;;;;61.15;28.83;;;4.30;85.40;;;;;;5032689;28;20133;-78
2021/03/25 03:56:43;;;;;;;50.83;26.10;;;4.30;85.90;;;;;;5038837;28;20127;-78
2021/03/25 03:59:18;;;;;;;50.35;24.80;;;4.30;85.60;;;;;;5034128;28;20043;-78
2021/03/25 04:01:51;;;;;;;;;;;4.20;86.90;;;;;;5041414;28;20063;-77
2021/03/25 04:04:30;;;;;;;45.85;22.30;;;4.30;90.20;;;;;;5051808;28;19927;-78
2021/03/25 04:07:05;;;;;;;49.35;26.92;;;4.20;85.60;;;;;;5062150;28;20040;-78
2021/03/25 04:09:52;;;;;;;48.70;22.65;;;4.20;84.40;;;;;;5072768;28;20433;-78
2021/03/25 04:12:23;;;;;;;46.33;25.38;;;4.20;84.90;;;;;;5053485;28;20055;-77
2021/03/25 04:14:55;;;;;;;54.42;28.00;;;4.10;84.60;;;;;;5055790;28;20068;-77
2021/03/25 04:17:30;;;;;;;46.13;24.77;;;4.10;83.70;;;;;;5051545;28;20041;-78
2021/03/25 04:20:00;;;;;;;54.03;28.23;;;4.10;83.20;;;;;;5034331;28;20315;-78
2021/03/25 04:22:32;;;;;;;48.22;23.73;;;4.00;83.20;;;;;;5033676;28;20045;-78
2021/03/25 04:25:14;;;;;;;46.30;24.40;;;4.00;83.00;;;;;;5051795;28;20072;-78
2021/03/25 04:28:12;;;;;;;52.67;27.13;;;4.00;83.40;;;;;;5063362;28;20048;-78
2021/03/25 04:30:47;;;;;;;48.00;26.17;;;4.00;83.90;;;;;;5066203;28;20075;-77
2021/03/25 04:33:17;;;;;;;51.28;26.52;;;3.90;83.70;;;;;;5063870;28;20044;-77
2021/03/25 04:35:44;;;;;;;61.55;28.70;;;3.90;83.90;;;;;;5067145;28;20041;-77
2021/03/25 04:38:17;;;;;;;58.08;30.27;;;3.90;85.10;;;;;;5070749;28;20043;-77
2021/03/25 04:40:43;;;;;;;60.85;28.10;;;4.00;84.40;;;;;;5063892;28;20120;-77
2021/03/25 04:43:10;;;;;;;57.22;26.95;;;4.00;85.50;;;;;;5063640;28;20142;-77
2021/03/25 04:45:53;;;;;;;56.85;26.48;;;4.00;85.50;;;;;;5034165;28;20045;-77
2021/03/25 04:48:23;;;;;;;60.67;28.00;;;4.00;85.30;;;;;;5051010;28;20041;-77
2021/03/25 04:50:59;;;;;;;63.33;28.00;;;4.10;85.90;;;;;;5051737;28;20421;-77
2021/03/25 04:53:32;;;;;;;58.30;28.35;;;4.10;85.70;;;;;;5071296;28;20040;-78
2021/03/25 04:55:58;;;;;;;54.65;26.77;;;4.10;86.30;;;;;;5071215;28;20152;-78
2021/03/25 04:58:32;;;;;;;60.70;28.45;;;4.10;86.10;;;;;;5069300;28;20041;-78
2021/03/25 05:01:19;;;;;;;57.58;28.95;;;4.10;84.90;;;;;;5053188;28;20110;-78
2021/03/25 05:03:47;;;;;;;64.07;31.40;;;4.10;85.80;;;;;;5072271;28;20055;-78
2021/03/25 05:06:19;;;;;;;67.03;30.25;;;4.10;87.90;;;;;;5065228;28;20044;-78
2021/03/25 05:08:47;;;;;;;67.85;32.05;;;4.10;86.00;;;;;;5051152;28;20041;-77
2021/03/25 05:11:16;;;;;;;72.47;30.70;;;4.10;86.70;;;;;;5068754;28;20044;-77
2021/03/25 05:13:45;;;;;;;68.55;30.70;;;4.10;86.70;;;;;;5062897;28;20150;-79
2021/03/25 05:16:37;;;;;;;66.68;32.13;;;4.10;85.80;;;;;;5049070;28;20033;-78
2021/03/25 05:19:26;;;;;;;71.93;33.13;;;4.10;86.30;;;;;;5032833;28;20747;-77
2021/03/25 05:22:20;;;;;;;62.60;30.25;;;4.10;86.80;;;;;;5030219;28;20056;-78
2021/03/25 05:25:04;;;;;;;71.57;34.20;;;4.10;85.80;;;;;;5054053;28;20337;-78
2021/03/25 05:27:31;;;;;;;64.07;29.63;;;4.10;86.30;;;;;;5070795;28;20647;-77
2021/03/25 05:30:00;;;;;;;70.85;33.20;;;4.00;85.90;;;;;;5047506;28;20064;-77
2021/03/25 05:32:32;;;;;;;73.68;33.13;;;4.10;86.40;;;;;;5051852;28;20037;-77
2021/03/25 05:35:03;;;;;;;66.47;33.30;;;4.10;85.80;;;;;;5052660;28;20044;-78
2021/03/25 05:37:31;;;;;;;74.53;34.75;;;4.20;85.60;;;;;;5053755;28;20443;-78
2021/03/25 05:39:57;;;;;;;66.22;32.55;;;4.10;85.60;;;;;;5045830;28;20520;-77
2021/03/25 05:42:32;;;;;;;72.82;35.72;;;4.20;85.60;;;;;;5049422;28;20049;-78
2021/03/25 05:45:17;;;;;;;71.85;32.70;;;4.20;85.90;;;;;;5057459;28;20055;-77
2021/03/25 05:48:01;;;;;;;;;;;4.30;87.70;;;;;;5071087;28;20437;-77
2021/03/25 05:50:49;;;;;;;67.15;33.10;;;4.30;91.00;;;;;;5069910;28;19951;-78
2021/03/25 05:53:44;;;;;;;75.93;36.80;;;4.40;88.70;;;;;;5069710;28;20102;-77
2021/03/25 05:56:19;;;;;;;72.10;32.70;;;4.40;87.10;;;;;;5033520;28;20045;-78
2021/03/25 05:58:57;;;;;;;85.93;37.05;;;4.50;87.40;;;;;;5033787;28;20130;-78
2021/03/25 06:01:34;;;;;;;65.07;32.42;;;4.50;86.80;;;;;;5041334;28;20421;-78
2021/03/25 06:04:15;;;;;;;71.80;32.80;;;4.60;87.30;;;;;;5061432;28;20036;-78
2021/03/25 06:07:09;;;;;;;76.82;36.47;;;4.60;86.50;;;;;;5045886;28;20064;-77
2021/03/25 06:09:43;;;;;;;79.17;36.10;;;4.70;86.30;;;;;;5068602;28;20036;-77
2021/03/25 06:12:32;;;;;;;74.28;35.42;;;4.80;87.50;;;;;;5045642;28;20347;-77
2021/03/25 06:15:07;;;;;;;76.70;36.45;;;4.90;88.60;;;;;;5039715;28;20041;-78
2021/03/25 06:17:46;;;;;;;70.20;35.30;;;4.90;88.20;;;;;;5065133;28;20430;-78
2021/03/25 06:20:14;;;;;;;73.45;35.65;;;5.00;88.30;;;;;;5062943;28;20056;-78
2021/03/25 06:22:57;;;;;;;71.75;33.90;;;5.10;88.00;;;;;;5065540;28;20147;-78
2021/03/25 06:25:40;;;;;;;77.32;36.25;;;5.20;87.70;;;;;;5066065;28;20415;-77
2021/03/25 06:28:09;;;;;;;80.30;37.58;;;5.20;87.30;;;;;;5047804;28;20037;-78
2021/03/25 06:30:40;;;;;;;72.15;33.47;;;5.40;87.90;;;;;;5066003;28;20066;-78
2021/03/25 06:33:31;;;;;;;67.70;33.05;;;5.40;87.20;;;;;;5063087;28;20210;-78
2021/03/25 06:36:03;;;;;;;64.95;32.20;;;5.40;89.80;;;;;;5056919;28;20404;-77
2021/03/25 06:38:37;;;;;;;70.45;34.45;;;5.50;88.40;;;;;;5063687;28;20075;-77
2021/03/25 06:41:29;;;;;;;70.25;32.38;;;5.60;87.80;;;;;;5041151;28;20044;-77
2021/03/25 06:44:20;;;;;;;63.60;33.90;;;5.70;88.40;;;;;;5064459;28;20499;-77
2021/03/25 06:46:47;;;;;;;70.65;32.15;;;5.90;89.10;;;;;;5060164;28;20059;-77
2021/03/25 06:49:22;;;;;;;76.97;35.92;;;6.00;88.70;;;;;;5063553;28;20468;-77
2021/03/25 06:51:48;;;;;;;63.80;32.30;;;6.10;88.20;;;;;;5062173;28;20064;-77
2021/03/25 06:54:24;;;;;;;64.55;33.47;;;6.10;88.20;;;;;;5066434;28;20490;-78
2021/03/25 06:56:52;;;;;;;65.28;32.75;;;6.30;88.40;;;;;;5050891;28;20040;-77
2021/03/25 06:59:21;;;;;;;70.50;32.65;;;6.40;87.80;;;;;;5060613;28;20047;-77
2021/03/25 07:01:57;;;;;;;75.82;35.45;;;6.50;88.30;;;;;;5058200;28;20056;-77
2021/03/25 07:04:27;;;;;;;73.10;36.78;;;6.60;87.90;;;;;;5045674;28;20040;-77
2021/03/25 07:07:04;;;;;;;77.53;34.75;;;6.70;87.80;;;;;;5061417;28;20040;-78
2021/03/25 07:09:35;;;;;;;73.20;35.63;;;6.80;87.50;;;;;;5064381;28;20036;-77
2021/03/25 07:12:03;;;;;;;71.20;34.80;;;6.90;87.50;;;;;;5064321;28;20341;-77
2021/03/25 07:14:41;;;;;;;70.30;33.50;;;6.90;87.20;;;;;;5047275;28;20048;-77
2021/03/25 07:17:10;;;;;;;72.03;36.00;;;7.00;87.90;;;;;;5067688;28;20051;-77
2021/03/25 07:19:38;;;;;;;72.28;35.05;;;7.00;87.00;;;;;;5050016;28;20047;-77
2021/03/25 07:22:16;;;;;;;74.22;35.40;;;7.00;86.80;;;;;;5060867;28;20385;-77
2021/03/25 07:24:41;;;;;;;70.40;35.58;;;7.00;86.90;;;;;;5038664;28;20051;-78
2021/03/25 07:27:25;;;;;;;71.10;35.67;;;7.10;87.10;;;;;;5039648;28;20037;-77
2021/03/25 07:30:06;;;;;;;66.85;34.83;;;7.10;87.10;;;;;;5061411;28;20056;-78
2021/03/25 07:32:53;;;;;;;65.35;33.05;;;7.20;87.50;;;;;;5063104;28;20040;-78
2021/03/25 07:35:38;;;;;;;70.72;34.58;;;7.70;87.40;;;;;;5035709;28;20093;-78
2021/03/25 07:38:37;;;;;;;68.20;35.45;;;8.60;85.90;;;;;;5038851;28;20036;-77
2021/03/25 07:41:15;;;;;;;70.82;34.38;;;9.30;84.30;;;;;;5059592;28;20037;-78
2021/03/25 07:43:50;;;;;;;71.70;35.47;;;9.80;82.80;;;;;;5064546;28;20105;-77
2021/03/25 07:46:35;;;;;;;65.65;35.85;;;10.40;81.80;;;;;;5061863;28;20547;-78
2021/03/25 07:49:10;;;;;;;67.78;36.35;;;10.90;80.20;;;;;;5067061;28;20045;-77
2021/03/25 07:52:02;;;;;;;73.07;36.88;;;11.40;80.00;;;;;;5036816;28;20047;-78
2021/03/25 07:54:42;;;;;;;66.10;33.53;;;11.70;77.60;;;;;;5049644;28;20048;-77
2021/03/25 07:57:12;;;;;;;69.93;35.15;;;11.90;77.20;;;;;;5043254;28;20329;-77
2021/03/25 07:59:44;;;;;;;68.07;35.45;;;12.10;77.40;;;;;;5058652;28;20067;-78
2021/03/25 08:02:33;;;;;;;77.03;39.85;;;12.40;78.10;;;;;;5056889;28;20053;-78
2021/03/25 08:05:28;;;;;;;75.65;40.00;;;12.60;76.20;;;;;;5059284;28;20045;-77
2021/03/25 08:07:58;;;;;;;73.43;39.25;;;12.90;73.20;;;;;;5062595;28;20112;-77
2021/03/25 08:10:37;;;;;;;73.82;37.05;;;13.20;76.40;;;;;;5061163;28;20417;-78
2021/03/25 08:13:14;;;;;;;73.22;38.92;;;13.40;71.80;;;;;;5062047;28;20303;-78
2021/03/25 08:15:44;;;;;;;71.15;37.75;;;13.50;74.70;;;;;;5049470;28;20053;-78
2021/03/25 08:18:20;;;;;;;73.82;38.08;;;13.70;74.20;;;;;;5049108;28;20048;-78
2021/03/25 08:20:58;;;;;;;70.28;40.17;;;13.90;75.50;;;;;;5062140;28;20094;-78
2021/03/25 08:23:51;;;;;;;66.68;37.28;;;14.20;71.90;;;;;;5058306;28;20041;-78
2021/03/25 08:26:28;;;;;;;69.70;38.85;;;14.40;70.50;;;;;;5056862;28;20048;-77
2021/03/25 08:29:07;;;;;;;77.43;37.78;;;14.50;72.30;;;;;;5039237;28;20048;-77
2021/03/25 08:32:11;;;;;;;68.50;36.65;;;14.50;71.70;;;;;;5027613;28;20053;-78
2021/03/25 08:35:00;;;;;;;64.25;34.97;;;14.60;68.10;;;;;;5058193;28;20033;-78
2021/03/25 08:37:42;;;;;;;70.35;36.70;;;14.70;69.70;;;;;;5062881;28;20389;-77
2021/03/25 08:40:54;;;;;;;61.83;35.97;;;14.80;72.60;;;;;;5061700;28;20056;-78
2021/03/25 08:43:26;;;;;;;69.80;35.60;;;14.70;69.70;;;;;;5054414;28;20079;-77
2021/03/25 08:46:11;;;;;;;63.15;34.83;;;14.70;71.00;;;;;;5067271;28;20071;-77
2021/03/25 08:48:40;;;;;;;56.33;32.53;;;14.70;72.50;;;;;;5069880;28;20047;-77
2021/03/25 08:51:14;;;;;;;61.13;36.22;;;14.70;72.80;;;;;;5052008;28;20036;-78
2021/03/25 08:53:58;;;;;;;66.45;33.60;;;14.50;73.20;;;;;;5065300;28;20040;-78
2021/03/25 08:56:42;;;;;;;56.25;32.90;;;14.50;70.90;;;;;;5041769;28;20362;-78
2021/03/25 08:59:22;;;;;;;64.22;33.75;;;14.40;69.40;;;;;;5055558;28;20044;-78
2021/03/25 09:01:50;;;;;;;60.65;33.50;;;14.40;72.80;;;;;;5046782;28;20056;-78
2021/03/25 09:04:19;;;;;;;54.63;32.67;;;14.40;73.60;;;;;;5066603;28;20040;-77
2021/03/25 09:06:47;;;;;;;59.33;33.67;;;14.30;74.40;;;;;;5044102;28;20042;-77
2021/03/25 09:09:29;;;;;;;55.40;33.53;;;14.30;74.90;;;;;;5068014;28;20097;-77
2021/03/25 09:11:57;;;;;;;57.28;33.58;;;14.20;73.70;;;;;;5067272;28;20040;-78
2021/03/25 09:14:25;;;;;;;58.30;31.63;;;14.10;75.10;;;;;;5049917;28;20123;-78
2021/03/25 09:16:53;;;;;;;58.92;33.83;;;14.10;75.60;;;;;;5065132;28;20111;-78
2021/03/25 09:19:36;;;;;;;59.63;32.30;;;14.00;74.70;;;;;;5062788;28;20037;-77
2021/03/25 09:22:03;;;;;;;54.75;30.60;;;13.80;72.60;;;;;;5039187;28;20045;-78
2021/03/25 09:24:29;;;;;;;46.28;29.30;;;13.60;76.00;;;;;;5064770;28;20123;-78
2021/03/25 09:27:01;;;;;;;46.58;27.75;;;13.60;75.60;;;;;;5062339;28;20036;-77
2021/03/25 09:29:34;;;;;;;49.00;27.13;;;13.50;73.90;;;;;;5065462;28;20536;-78
2021/03/25 09:32:01;;;;;;;50.88;28.85;;;13.40;71.00;;;;;;5065547;28;20051;-78
2021/03/25 09:34:41;;;;;;;45.35;26.98;;;13.30;74.30;;;;;;5042757;28;20043;-78
2021/03/25 09:37:24;;;;;;;49.05;28.85;;;13.30;74.40;;;;;;5066217;28;20068;-77
2021/03/25 09:40:04;;;;;;;47.85;25.08;;;13.40;73.00;;;;;;5066270;28;20040;-77
2021/03/25 09:42:30;;;;;;;43.13;26.70;;;13.50;72.90;;;;;;5065028;28;20417;-77
2021/03/25 09:44:56;;;;;;;51.10;26.20;;;13.60;75.00;;;;;;5066885;28;20048;-78
2021/03/25 09:47:33;;;;;;;44.70;26.02;;;13.60;73.90;;;;;;5066824;28;20040;-78
2021/03/25 09:50:01;;;;;;;44.63;24.63;;;13.70;73.40;;;;;;5046832;28;20318;-78
2021/03/25 09:52:32;;;;;;;37.35;22.98;;;13.80;73.50;;;;;;5044762;28;20037;-78
2021/03/25 09:54:58;;;;;;;36.50;22.83;;;13.70;71.00;;;;;;5045651;28;20036;-77
2021/03/25 09:57:33;;;;;;;44.10;25.02;;;13.60;73.20;;;;;;5063819;28;20040;-78
2021/03/25 10:00:10;;;;;;;43.40;26.92;;;13.60;72.10;;;;;;5044057;28;20037;-78
2021/03/25 10:02:51;;;;;;;39.28;23.73;;;13.50;72.80;;;;;;5048793;28;20361;-78
2021/03/25 10:05:24;;;;;;;36.83;20.80;;;13.60;72.60;;;;;;5063737;28;20036;-78
2021/03/25 10:07:57;;;;;;;39.63;24.25;;;13.60;72.90;;;;;;5066657;28;20622;-78
2021/03/25 10:10:23;;;;;;;39.58;22.60;;;13.70;73.10;;;;;;5061264;28;20051;-78
2021/03/25 10:13:01;;;;;;;45.35;23.17;;;13.80;72.80;;;;;;5067072;28;20045;-77
2021/03/25 10:15:41;;;;;;;39.33;22.25;;;13.90;70.40;;;;;;5052884;28;20621;-77
2021/03/25 10:18:07;;;;;;;33.88;20.85;;;14.00;72.60;;;;;;5061567;28;20097;-78
2021/03/25 10:20:58;;;;;;;42.80;21.98;;;14.10;72.30;;;;;;5060663;28;20429;-78
2021/03/25 10:23:32;;;;;;;38.88;21.90;;;14.10;67.20;;;;;;5043547;28;20055;-78
2021/03/25 10:26:10;;;;;;;36.70;21.08;;;13.90;71.80;;;;;;5059772;28;20089;-78
2021/03/25 10:28:43;;;;;;;43.95;22.95;;;13.90;70.60;;;;;;5063556;28;20579;-78
2021/03/25 10:31:21;;;;;;;37.40;21.70;;;13.90;71.80;;;;;;5048861;28;20132;-79
2021/03/25 10:33:52;;;;;;;33.63;20.98;;;13.70;71.60;;;;;;5062965;28;20041;-78
2021/03/25 10:36:32;;;;;;;36.63;19.13;;;13.60;72.20;;;;;;5062784;28;20040;-78
2021/03/25 10:39:01;;;;;;;33.65;20.52;;;13.70;71.20;;;;;;5047328;28;20323;-78
2021/03/25 10:41:37;;;;;;;32.53;19.45;;;13.90;72.00;;;;;;5050343;28;20040;-78
2021/03/25 10:44:28;;;;;;;30.17;18.38;;;14.10;71.40;;;;;;5066010;28;20036;-78
2021/03/25 10:46:57;;;;;;;24.48;15.15;;;14.30;69.70;;;;;;5068915;28;20524;-78
2021/03/25 10:49:28;;;;;;;27.75;14.80;;;14.40;70.90;;;;;;5058353;28;20032;-78
2021/03/25 10:51:55;;;;;;;28.25;15.60;;;14.40;67.90;;;;;;5060734;28;20089;-78
2021/03/25 10:54:36;;;;;;;27.52;14.55;;;14.30;69.80;;;;;;5060867;28;20143;-78
2021/03/25 10:57:15;;;;;;;28.88;16.83;;;14.40;67.80;;;;;;5063835;28;20044;-78
2021/03/25 10:59:49;;;;;;;32.70;16.52;;;14.40;69.90;;;;;;5043939;28;20041;-78
2021/03/25 11:02:25;;;;;;;29.15;16.70;;;14.50;67.60;;;;;;5047517;28;20106;-78
2021/03/25 11:05:18;;;;;;;25.65;16.48;;;14.50;65.10;;;;;;5047463;28;20094;-78
2021/03/25 11:07:47;;;;;;;25.73;15.73;;;14.50;64.50;;;;;;5067227;28;20043;-78
2021/03/25 11:10:18;;;;;;;32.05;16.80;;;14.50;68.90;;;;;;5067218;28;20044;-78
2021/03/25 11:12:44;;;;;;;32.88;17.17;;;14.70;68.20;;;;;;5060595;28;20447;-78
2021/03/25 11:15:20;;;;;;;31.02;17.90;;;14.90;69.80;;;;;;5055346;28;20037;-78
2021/03/25 11:17:47;;;;;;;27.88;17.23;;;15.10;66.90;;;;;;5039858;28;20137;-78
2021/03/25 11:20:19;;;;;;;28.23;15.85;;;15.20;68.50;;;;;;5058642;28;20041;-78
2021/03/25 11:22:45;;;;;;;27.33;17.48;;;15.20;69.10;;;;;;5046629;28;20427;-78
2021/03/25 11:25:26;;;;;;;24.27;14.73;;;15.10;68.80;;;;;;5060782;28;20446;-78
2021/03/25 11:27:58;;;;;;;24.08;16.55;;;15.10;66.50;;;;;;5048335;28;20055;-78
2021/03/25 11:30:38;;;;;;;27.60;15.60;;;15.10;69.00;;;;;;5045279;28;20429;-78
2021/03/25 11:33:28;;;;;;;26.80;15.93;;;15.00;69.20;;;;;;5067747;28;20153;-78
2021/03/25 11:35:57;;;;;;;21.90;14.30;;;15.10;64.40;;;;;;5060807;28;20045;-78
2021/03/25 11:38:26;;;;;;;24.15;13.98;;;15.10;69.10;;;;;;5065130;28;20050;-78
2021/03/25 11:41:00;;;;;;;20.02;12.60;;;15.00;69.20;;;;;;5047320;28;20417;-78
2021/03/25 11:43:44;;;;;;;19.25;11.77;;;14.80;67.10;;;;;;5060399;28;20115;-78
2021/03/25 11:46:23;;;;;;;19.25;11.90;;;14.70;62.90;;;;;;5062270;28;20037;-78
2021/03/25 11:48:58;;;;;;;21.90;12.07;;;14.60;68.10;;;;;;5062861;28;20041;-78
2021/03/25 11:51:25;;;;;;;20.70;11.93;;;14.60;67.00;;;;;;5038666;28;20048;-78
2021/03/25 11:53:53;;;;;;;22.08;14.45;;;14.50;68.90;;;;;;5046033;28;20441;-78
2021/03/25 11:56:32;;;;;;;23.25;14.65;;;14.50;68.70;;;;;;5059426;28;20037;-78
2021/03/25 11:59:13;;;;;;;25.95;16.77;;;14.40;69.00;;;;;;5047366;28;20043;-78
2021/03/25 12:01:41;;;;;;;25.55;16.02;;;14.40;67.00;;;;;;5059872;28;20040;-78
2021/03/25 12:04:13;;;;;;;27.10;16.35;;;14.40;69.80;;;;;;5047875;28;20078;-78
2021/03/25 12:06:57;;;;;;;26.88;16.25;;;14.40;69.50;;;;;;5066214;28;20078;-78
2021/03/25 12:09:23;;;;;;;27.80;16.95;;;14.40;69.60;;;;;;5064710;28;20434;-78
2021/03/25 12:11:50;;;;;;;24.00;15.05;;;14.40;68.80;;;;;;5035120;28;20037;-78
2021/03/25 12:14:19;;;;;;;24.20;13.18;;;14.40;68.50;;;;;;5053689;28;20033;-78
2021/03/25 12:16:50;;;;;;;23.40;14.10;;;14.40;68.60;;;;;;5052157;28;20470;-78
2021/03/25 12:19:16;;;;;;;20.92;13.55;;;14.50;69.30;;;;;;5052416;28;20167;-78
2021/03/25 12:21:43;;;;;;;21.08;13.68;;;14.50;69.50;;;;;;5053650;28;20045;-78
2021/03/25 12:24:10;;;;;;;26.30;14.18;;;14.60;70.00;;;;;;5059343;28;20041;-78
2021/03/25 12:26:36;;;;;;;24.33;14.60;;;14.50;68.50;;;;;;5065386;28;20116;-78
2021/03/25 12:29:05;;;;;;;22.65;14.50;;;14.50;68.60;;;;;;5049959;28;20745;-78
2021/03/25 12:31:35;;;;;;;25.20;14.25;;;14.40;68.30;;;;;;5064137;28;20041;-78
2021/03/25 12:34:01;;;;;;;30.90;15.40;;;14.30;68.90;;;;;;5057832;28;20722;-78
2021/03/25 12:36:28;;;;;;;26.98;16.48;;;14.20;68.40;;;;;;5068784;28;20045;-78
2021/03/25 12:38:54;;;;;;;24.80;15.85;;;14.20;68.90;;;;;;5051397;28;20036;-78
2021/03/25 12:41:35;;;;;;;28.95;17.17;;;14.20;69.00;;;;;;5069882;28;20536;-78
2021/03/25 12:44:02;;;;;;;30.75;19.38;;;14.30;68.80;;;;;;5046995;28;20041;-78
2021/03/25 12:46:28;;;;;;;24.02;16.05;;;14.40;69.40;;;;;;5042172;28;20112;-78
2021/03/25 12:48:54;;;;;;;28.10;15.55;;;14.50;69.60;;;;;;5066012;28;20127;-78
2021/03/25 12:51:21;;;;;;;24.48;14.82;;;14.50;69.50;;;;;;5060968;28;20119;-78
2021/03/25 12:53:47;;;;;;;21.65;14.60;;;14.60;69.70;;;;;;5053588;28;20070;-79
2021/03/25 12:56:24;;;;;;;23.15;14.60;;;14.50;68.90;;;;;;5063493;28;20044;-78
2021/03/25 12:58:50;;;;;;;28.13;15.02;;;14.50;67.50;;;;;;5069088;28;20369;-78
2021/03/25 13:01:21;;;;;;;20.65;12.85;;;14.50;68.90;;;;;;5065688;28;20040;-78
2021/03/25 13:03:48;;;;;;;27.48;14.65;;;14.40;69.40;;;;;;5051893;28;20084;-78
2021/03/25 13:06:15;;;;;;;26.65;15.63;;;14.30;69.00;;;;;;5069659;28;20040;-79
2021/03/25 13:08:41;;;;;;;37.58;21.05;;;14.20;69.60;;;;;;5064770;28;20047;-79
2021/03/25 13:11:10;;;;;;;31.80;19.95;;;14.00;72.50;;;;;;5063207;28;20045;-78